createdAt,value
2022-08-10T00:00:01.056Z,20.45
2022-08-10T00:02:51.274Z,20.35
2022-08-10T00:05:43.562Z,20.38
2022-08-10T00:08:40.756Z,20.45
2022-08-10T00:11:28.868Z,20.48
2022-08-10T00:14:17.049Z,20.52
2022-08-10T00:17:05.483Z,20.47
2022-08-10T00:20:02.581Z,20.67
2022-08-10T00:22:57.379Z,21.05
2022-08-10T00:25:46.298Z,21.23
2022-08-10T00:28:34.591Z,21.15
2022-08-10T00:31:22.679Z,21.28
2022-08-10T00:34:10.704Z,21.24
2022-08-10T00:37:00.658Z,21.27
2022-08-10T00:39:48.723Z,21.35
2022-08-10T00:42:36.776Z,21.49
2022-08-10T00:45:24.778Z,21.49
2022-08-10T00:48:12.812Z,21.47
2022-08-10T00:51:01.574Z,21.46
2022-08-10T00:53:51.107Z,21.47
2022-08-10T00:57:17.363Z,21.54
2022-08-10T00:59:59.185Z,21.54
2022-08-10T01:02:48.512Z,21.53
2022-08-10T01:05:51.222Z,21.53
2022-08-10T01:08:52.458Z,21.52
2022-08-10T01:12:39.933Z,21.43
2022-08-10T01:15:02.733Z,21.46
2022-08-10T01:17:55.203Z,21.41
2022-08-10T01:20:59.499Z,21.42
2022-08-10T01:24:09.886Z,21.38
2022-08-10T01:27:19.730Z,21.35
2022-08-10T01:30:18.259Z,21.38
2022-08-10T01:33:10.561Z,21.44
2022-08-10T01:36:04.563Z,21.34
2022-08-10T01:38:53.973Z,21.39
2022-08-10T01:41:46.773Z,21.41
2022-08-10T01:44:37.224Z,21.43
2022-08-10T01:47:51.427Z,21.45
2022-08-10T01:50:59.502Z,21.35
2022-08-10T01:53:54.095Z,21.40
2022-08-10T01:56:46.781Z,21.38
2022-08-10T01:59:37.586Z,21.31
2022-08-10T02:02:30.691Z,21.29
2022-08-10T02:05:19.776Z,21.23
2022-08-10T02:08:12.619Z,21.15
2022-08-10T02:11:02.708Z,21.22
2022-08-10T02:13:52.268Z,21.23
2022-08-10T02:16:43.553Z,21.12
2022-08-10T02:19:36.261Z,21.04
2022-08-10T02:22:36.697Z,20.99
2022-08-10T02:25:41.261Z,21.03
2022-08-10T02:28:34.789Z,20.96
2022-08-10T02:31:25.202Z,20.95
2022-08-10T02:34:16.552Z,20.86
2022-08-10T02:37:11.031Z,20.92
2022-08-10T02:40:01.485Z,20.87
2022-08-10T02:45:27.550Z,20.80
2022-08-10T02:46:08.076Z,20.75
2022-08-10T02:49:02.091Z,20.74
2022-08-10T02:52:08.040Z,20.73
2022-08-10T02:55:17.088Z,20.63
2022-08-10T02:58:17.404Z,20.62
2022-08-10T03:01:14.171Z,20.62
2022-08-10T03:04:07.494Z,20.56
2022-08-10T03:06:59.165Z,20.59
2022-08-10T03:09:49.347Z,20.57
2022-08-10T03:12:40.487Z,20.51
2022-08-10T03:15:30.681Z,20.45
2022-08-10T03:18:22.512Z,20.48
2022-08-10T03:21:12.004Z,20.41
2022-08-10T03:24:02.686Z,20.31
2022-08-10T03:27:12.863Z,20.33
2022-08-10T03:30:29.512Z,20.28
2022-08-10T03:33:11.309Z,20.20
2022-08-10T03:36:42.357Z,20.22
2022-08-10T03:39:08.314Z,20.25
2022-08-10T03:42:00.876Z,20.19
2022-08-10T03:44:50.949Z,20.18
2022-08-10T03:47:43.644Z,20.16
2022-08-10T03:50:51.489Z,20.10
2022-08-10T03:54:04.246Z,20.07
2022-08-10T03:56:49.408Z,19.77
2022-08-10T03:59:38.376Z,20.01
2022-08-10T04:02:52.871Z,19.97
2022-08-10T04:05:38.589Z,19.90
2022-08-10T04:08:27.169Z,19.88
2022-08-10T04:11:15.244Z,19.79
2022-08-10T04:14:03.556Z,19.68
2022-08-10T04:16:51.642Z,19.76
2022-08-10T04:19:45.759Z,19.72
2022-08-10T04:22:37.584Z,19.73
2022-08-10T04:25:27.278Z,19.76
2022-08-10T04:28:15.847Z,19.75
2022-08-10T04:31:05.520Z,19.65
2022-08-10T04:33:55.408Z,19.57
2022-08-10T04:36:45.629Z,19.48
2022-08-10T04:39:35.431Z,19.50
2022-08-10T04:42:24.105Z,19.53
2022-08-10T04:45:14.241Z,19.49
2022-08-10T04:48:03.272Z,19.45
2022-08-10T04:50:51.782Z,19.37
2022-08-10T04:54:04.349Z,19.45
2022-08-10T04:56:49.637Z,19.46
2022-08-10T04:59:37.617Z,19.45
2022-08-10T05:02:31.541Z,19.40
2022-08-10T05:05:20.203Z,19.37
2022-08-10T05:08:08.219Z,18.88
2022-08-10T05:10:56.235Z,19.43
2022-08-10T05:13:45.531Z,19.47
2022-08-10T05:16:35.017Z,19.45
2022-08-10T05:20:03.409Z,19.51
2022-08-10T05:22:31.029Z,19.60
2022-08-10T05:25:20.503Z,19.59
2022-08-10T05:28:08.547Z,19.71
2022-08-10T05:30:58.035Z,19.68
2022-08-10T05:33:46.061Z,19.77
2022-08-10T05:36:34.896Z,19.99
2022-08-10T05:39:28.790Z,20.18
2022-08-10T05:42:21.590Z,20.19
2022-08-10T05:45:21.121Z,20.32
2022-08-10T05:48:56.192Z,20.36
2022-08-10T05:51:19.283Z,20.41
2022-08-10T05:54:14.929Z,20.45
2022-08-10T05:57:03.200Z,20.56
2022-08-10T06:00:11.040Z,20.70
2022-08-10T06:03:11.805Z,20.78
2022-08-10T06:06:01.781Z,20.90
2022-08-10T06:08:51.334Z,20.95
2022-08-10T06:12:24.048Z,21.14
2022-08-10T06:15:05.905Z,21.36
2022-08-10T06:18:01.931Z,21.51
2022-08-10T06:20:53.009Z,21.65
2022-08-10T06:23:42.332Z,21.74
2022-08-10T06:26:30.491Z,21.86
2022-08-10T06:29:20.894Z,21.87
2022-08-10T06:32:10.753Z,22.18
2022-08-10T06:35:01.508Z,22.32
2022-08-10T06:37:52.639Z,22.47
2022-08-10T06:40:44.112Z,22.58
2022-08-10T06:43:34.626Z,22.67
2022-08-10T06:46:24.285Z,22.62
2022-08-10T06:49:14.232Z,22.81
2022-08-10T06:52:03.765Z,22.91
2022-08-10T06:54:56.703Z,23.08
2022-08-10T06:57:45.975Z,23.22
2022-08-10T07:00:51.242Z,23.23
2022-08-10T07:03:45.211Z,23.45
2022-08-10T07:06:35.901Z,23.74
2022-08-10T07:09:24.808Z,23.96
2022-08-10T07:12:15.896Z,24.05
2022-08-10T07:15:04.553Z,24.31
2022-08-10T07:17:54.213Z,24.52
2022-08-10T07:20:43.747Z,24.81
2022-08-10T07:23:58.914Z,25.11
2022-08-10T07:26:47.552Z,25.56
2022-08-10T07:29:54.566Z,25.69
2022-08-10T07:32:45.266Z,26.06
2022-08-10T07:35:42.418Z,26.52
2022-08-10T07:38:34.217Z,26.89
2022-08-10T07:41:24.619Z,27.72
2022-08-10T07:44:13.415Z,28.03
2022-08-10T07:47:05.194Z,28.27
2022-08-10T07:49:56.267Z,28.82
2022-08-10T07:52:46.773Z,29.33
2022-08-10T07:56:04.830Z,29.67
2022-08-10T07:58:51.902Z,29.22
2022-08-10T08:01:45.295Z,28.76
2022-08-10T08:04:35.872Z,28.40
2022-08-10T08:07:24.423Z,28.08
2022-08-10T08:10:13.941Z,28.00
2022-08-10T08:13:03.967Z,27.87
2022-08-10T08:16:21.325Z,27.72
2022-08-10T08:24:05.429Z,27.60
2022-08-10T08:25:23.418Z,27.52
2022-08-10T08:28:12.343Z,27.78
2022-08-10T08:31:00.864Z,28.01
2022-08-10T08:33:50.753Z,28.03
2022-08-10T08:36:41.290Z,28.13
2022-08-10T08:39:33.232Z,28.24
2022-08-10T08:42:49.154Z,28.00
2022-08-10T08:46:01.901Z,28.21
2022-08-10T08:49:09.197Z,28.24
2022-08-10T08:52:18.310Z,28.52
2022-08-10T08:55:50.229Z,28.36
2022-08-10T08:59:02.459Z,28.65
2022-08-10T09:02:01.446Z,28.79
2022-08-10T09:05:04.677Z,28.43
2022-08-10T09:08:07.440Z,28.54
2022-08-10T09:11:01.046Z,28.49
2022-08-10T09:13:55.469Z,28.72
2022-08-10T09:16:54.521Z,28.89
2022-08-10T09:19:48.142Z,29.09
2022-08-10T09:22:57.285Z,29.21
2022-08-10T09:25:53.024Z,29.29
2022-08-10T09:28:44.526Z,29.07
2022-08-10T09:32:54.342Z,29.18
2022-08-10T09:36:28.154Z,29.30
2022-08-10T09:38:32.695Z,29.38
2022-08-10T09:41:30.366Z,29.32
2022-08-10T09:44:30.305Z,28.80
2022-08-10T09:48:02.425Z,29.17
2022-08-10T09:51:41.793Z,29.12
2022-08-10T09:54:08.208Z,29.13
2022-08-10T09:57:43.497Z,28.81
2022-08-10T10:00:22.489Z,29.24
2022-08-10T10:03:20.587Z,29.59
2022-08-10T10:06:20.283Z,29.76
2022-08-10T10:09:13.014Z,29.37
2022-08-10T10:12:12.977Z,29.64
2022-08-10T10:15:24.912Z,29.43
2022-08-10T10:18:31.140Z,29.78
2022-08-10T10:21:54.534Z,29.77
2022-08-10T10:24:42.274Z,30.10
2022-08-10T10:27:48.107Z,30.02
2022-08-10T10:30:45.821Z,30.13
2022-08-10T10:33:54.183Z,30.36
2022-08-10T10:36:44.418Z,30.33
2022-08-10T10:39:33.406Z,30.60
2022-08-10T10:42:44.765Z,30.83
2022-08-10T10:45:50.214Z,30.47
2022-08-10T10:48:48.701Z,30.74
2022-08-10T10:51:45.719Z,30.76
2022-08-10T10:54:42.658Z,31.01
2022-08-10T10:57:58.958Z,30.87
2022-08-10T11:00:57.941Z,30.63
2022-08-10T11:03:58.638Z,30.36
2022-08-10T11:06:58.175Z,30.24
2022-08-10T11:10:08.652Z,30.60
2022-08-10T11:14:25.831Z,31.04
2022-08-10T11:16:28.903Z,30.91
2022-08-10T11:19:24.673Z,30.70
2022-08-10T11:22:19.516Z,30.73
2022-08-10T11:25:13.915Z,30.45
2022-08-10T11:28:09.419Z,30.76
2022-08-10T11:31:02.786Z,31.05
2022-08-10T11:34:46.518Z,31.36
2022-08-10T11:37:17.105Z,31.13
2022-08-10T11:40:19.012Z,31.40
2022-08-10T11:43:12.161Z,31.28
2022-08-10T11:46:16.501Z,31.30
2022-08-10T11:49:12.665Z,31.07
2022-08-10T11:52:06.334Z,31.15
2022-08-10T11:54:58.680Z,31.31
2022-08-10T11:57:53.445Z,31.45
2022-08-10T12:00:42.132Z,31.70
2022-08-10T12:03:35.000Z,31.59
2022-08-10T12:06:53.609Z,31.51
2022-08-10T12:10:05.795Z,31.48
2022-08-10T12:12:51.709Z,31.70
2022-08-10T12:15:44.551Z,31.72
2022-08-10T12:18:36.508Z,32.10
2022-08-10T12:21:28.719Z,31.97
2022-08-10T12:24:24.277Z,32.10
2022-08-10T12:27:17.848Z,32.16
2022-08-10T12:30:09.099Z,32.19
2022-08-10T12:33:03.220Z,32.15
2022-08-10T12:36:18.463Z,32.20
2022-08-10T12:39:14.892Z,32.00
2022-08-10T12:42:10.240Z,32.27
2022-08-10T12:45:04.615Z,32.43
2022-08-10T12:48:01.139Z,32.31
2022-08-10T12:50:56.798Z,32.28
2022-08-10T12:53:53.983Z,32.42
2022-08-10T12:56:47.018Z,32.41
2022-08-10T12:59:43.110Z,32.34
2022-08-10T13:02:34.829Z,32.24
2022-08-10T13:05:27.986Z,32.53
2022-08-10T13:08:33.950Z,32.38
2022-08-10T13:12:36.104Z,32.41
2022-08-10T13:14:38.397Z,32.44
2022-08-10T13:17:39.121Z,32.83
2022-08-10T13:20:32.010Z,32.89
2022-08-10T13:23:23.544Z,33.15
2022-08-10T13:26:15.611Z,33.19
2022-08-10T13:29:12.902Z,32.92
2022-08-10T13:32:09.035Z,32.57
2022-08-10T13:35:03.189Z,32.71
2022-08-10T13:37:55.604Z,32.83
2022-08-10T13:40:49.738Z,32.64
2022-08-10T13:43:38.885Z,32.75
2022-08-10T13:46:27.457Z,32.74
2022-08-10T13:49:16.368Z,32.98
2022-08-10T13:52:05.012Z,32.49
2022-08-10T13:54:56.477Z,32.86
2022-08-10T13:57:49.444Z,32.68
2022-08-10T14:00:42.525Z,32.88
2022-08-10T14:03:37.522Z,33.19
2022-08-10T14:06:29.579Z,33.39
2022-08-10T14:09:18.877Z,33.46
2022-08-10T14:12:11.585Z,33.32
2022-08-10T14:15:01.792Z,33.01
2022-08-10T14:17:56.047Z,33.03
2022-08-10T14:20:45.595Z,33.07
2022-08-10T14:23:35.252Z,33.05
2022-08-10T14:26:26.912Z,32.93
2022-08-10T14:29:19.718Z,33.17
2022-08-10T14:32:10.178Z,32.76
2022-08-10T14:36:18.772Z,32.30
2022-08-10T14:38:13.330Z,31.92
2022-08-10T14:41:03.317Z,32.16
2022-08-10T14:43:57.053Z,32.42
2022-08-10T14:46:51.392Z,32.46
2022-08-10T14:49:58.196Z,32.55
2022-08-10T14:52:48.224Z,32.01
2022-08-10T14:55:58.324Z,31.65
2022-08-10T14:59:05.258Z,30.75
2022-08-10T15:02:40.288Z,30.81
2022-08-10T15:05:12.509Z,31.25
2022-08-10T15:08:00.980Z,31.51
2022-08-10T15:10:51.094Z,31.87
2022-08-10T15:13:44.684Z,31.57
2022-08-10T15:16:54.576Z,32.15
2022-08-10T15:20:03.460Z,31.76
2022-08-10T15:23:02.455Z,31.82
2022-08-10T15:25:56.470Z,31.82
2022-08-10T15:29:24.373Z,31.68
2022-08-10T15:32:14.066Z,31.15
2022-08-10T15:35:25.695Z,30.88
2022-08-10T15:38:18.239Z,31.24
2022-08-10T15:41:11.070Z,31.40
2022-08-10T15:43:59.460Z,31.64
2022-08-10T15:46:52.835Z,31.41
2022-08-10T15:49:48.731Z,31.27
2022-08-10T15:53:01.961Z,31.55
2022-08-10T15:55:52.948Z,31.51
2022-08-10T15:58:48.645Z,31.34
2022-08-10T16:02:04.064Z,30.97
2022-08-10T16:04:58.201Z,31.00
2022-08-10T16:07:52.757Z,30.83
2022-08-10T16:10:53.340Z,30.79
2022-08-10T16:13:59.707Z,30.60
2022-08-10T16:16:55.053Z,30.79
2022-08-10T16:19:49.101Z,30.93
2022-08-10T16:22:37.730Z,30.96
2022-08-10T16:25:51.388Z,30.98
2022-08-10T16:28:43.501Z,30.97
2022-08-10T16:31:33.592Z,30.81
2022-08-10T16:34:23.435Z,30.94
2022-08-10T16:37:15.056Z,30.94
2022-08-10T16:40:05.417Z,31.02
2022-08-10T16:42:56.282Z,31.10
2022-08-10T16:45:48.724Z,30.90
2022-08-10T16:48:49.750Z,31.33
2022-08-10T16:51:40.120Z,32.43
2022-08-10T16:54:29.634Z,33.39
2022-08-10T16:57:19.339Z,34.05
2022-08-10T17:00:10.680Z,34.77
2022-08-10T17:03:22.805Z,35.21
2022-08-10T17:06:19.221Z,36.06
2022-08-10T17:09:14.725Z,36.24
2022-08-10T17:12:10.460Z,35.70
2022-08-10T17:15:09.140Z,34.13
2022-08-10T17:18:03.587Z,31.77
2022-08-10T17:20:52.232Z,30.74
2022-08-10T17:23:46.779Z,29.66
2022-08-10T17:26:37.375Z,29.42
2022-08-10T17:29:57.139Z,29.24
2022-08-10T17:32:44.243Z,28.88
2022-08-10T17:35:37.081Z,28.71
2022-08-10T17:38:27.223Z,28.60
2022-08-10T17:41:17.777Z,28.42
2022-08-10T17:44:08.999Z,28.23
2022-08-10T17:46:57.933Z,28.24
2022-08-10T17:49:47.994Z,28.02
2022-08-10T17:52:37.542Z,27.97
2022-08-10T17:55:31.835Z,27.78
2022-08-10T17:58:24.952Z,27.60
2022-08-10T18:01:41.000Z,27.41
2022-08-10T18:04:34.204Z,27.19
2022-08-10T18:07:35.619Z,26.96
2022-08-10T18:10:26.131Z,26.79
2022-08-10T18:13:18.519Z,26.64
2022-08-10T18:16:07.969Z,26.50
2022-08-10T18:19:00.749Z,26.29
2022-08-10T18:21:50.582Z,26.13
2022-08-10T18:24:40.274Z,25.86
2022-08-10T18:28:00.582Z,25.63
2022-08-10T18:30:29.744Z,25.46
2022-08-10T18:33:27.733Z,25.26
2022-08-10T18:36:18.472Z,25.10
2022-08-10T18:39:07.917Z,24.92
2022-08-10T18:42:05.552Z,24.72
2022-08-10T18:45:01.959Z,24.43
2022-08-10T18:47:59.287Z,24.25
2022-08-10T18:50:50.839Z,24.02
2022-08-10T18:53:48.068Z,23.80
2022-08-10T18:56:51.089Z,23.57
2022-08-10T19:00:07.811Z,23.32
2022-08-10T19:03:19.004Z,23.08
2022-08-10T19:06:20.748Z,22.88
2022-08-10T19:09:45.725Z,22.71
2022-08-10T19:12:45.592Z,22.49
2022-08-10T19:15:40.419Z,22.37
2022-08-10T19:18:38.385Z,21.99
2022-08-10T19:21:32.087Z,21.99
2022-08-10T19:24:26.869Z,21.87
2022-08-10T19:27:29.285Z,21.74
2022-08-10T19:30:19.586Z,21.63
2022-08-10T19:33:22.968Z,21.46
2022-08-10T19:36:18.468Z,21.36
2022-08-10T19:39:17.888Z,21.23
2022-08-10T19:42:12.147Z,21.11
2022-08-10T19:45:12.062Z,20.87
2022-08-10T19:48:27.323Z,20.83
2022-08-10T19:51:20.955Z,20.75
2022-08-10T19:54:14.815Z,20.66
2022-08-10T19:57:10.448Z,20.56
2022-08-10T20:00:19.196Z,20.50
2022-08-10T20:03:17.847Z,20.38
2022-08-10T20:06:19.823Z,20.25
2022-08-10T20:09:15.830Z,20.20
2022-08-10T20:12:07.748Z,20.14
2022-08-10T20:15:02.878Z,20.07
2022-08-10T20:17:56.627Z,20.01
2022-08-10T20:20:50.168Z,19.96
2022-08-10T20:23:55.200Z,19.90
2022-08-10T20:26:52.394Z,19.84
2022-08-10T20:29:59.027Z,19.83
2022-08-10T20:32:52.073Z,19.79
2022-08-10T20:35:51.075Z,19.72
2022-08-10T20:38:47.016Z,19.68
2022-08-10T20:41:53.470Z,19.58
2022-08-10T20:44:50.991Z,19.59
2022-08-10T20:47:56.658Z,19.59
2022-08-10T20:50:48.878Z,19.63
2022-08-10T20:53:45.333Z,19.60
2022-08-10T20:56:38.589Z,19.38
2022-08-10T21:00:03.831Z,19.46
2022-08-10T21:03:20.947Z,19.38
2022-08-10T21:06:42.134Z,19.40
2022-08-10T21:09:49.891Z,19.53
2022-08-10T21:12:56.413Z,19.57
2022-08-10T21:15:56.126Z,19.53
2022-08-10T21:19:01.859Z,19.50
2022-08-10T21:22:04.401Z,19.47
2022-08-10T21:25:01.342Z,19.46
2022-08-10T21:28:13.015Z,19.49
2022-08-10T21:31:16.070Z,19.53
2022-08-10T21:34:19.056Z,19.54
2022-08-10T21:37:12.103Z,19.53
2022-08-10T21:40:35.486Z,19.45
2022-08-10T21:43:57.658Z,19.49
2022-08-10T21:47:31.067Z,19.50
2022-08-10T21:50:45.265Z,19.52
2022-08-10T21:53:57.001Z,19.50
2022-08-10T21:57:09.775Z,19.51
2022-08-10T22:00:22.403Z,19.37
2022-08-10T22:03:39.616Z,19.47
2022-08-10T22:06:52.197Z,19.43
2022-08-10T22:10:03.923Z,19.44
2022-08-10T22:13:12.492Z,19.41
2022-08-10T22:16:20.752Z,19.39
2022-08-10T22:19:30.525Z,19.37
2022-08-10T22:22:46.510Z,19.38
2022-08-10T22:26:15.323Z,19.41
2022-08-10T22:29:42.172Z,19.42
2022-08-10T22:32:58.647Z,19.49
2022-08-10T22:36:35.019Z,19.44
2022-08-10T22:40:12.582Z,19.43
2022-08-10T22:43:35.877Z,19.44
2022-08-10T22:46:46.436Z,19.44
2022-08-10T22:49:34.193Z,19.39
2022-08-10T22:52:26.886Z,19.35
2022-08-10T22:55:36.352Z,19.30
2022-08-10T22:58:39.665Z,19.30
2022-08-10T23:01:42.088Z,19.29
2022-08-10T23:04:56.393Z,19.33
2022-08-10T23:07:50.168Z,19.33
2022-08-10T23:10:42.268Z,19.37
2022-08-10T23:13:36.179Z,19.39
2022-08-10T23:16:47.179Z,19.40
2022-08-10T23:19:41.531Z,19.38
2022-08-10T23:22:35.925Z,19.38
2022-08-10T23:25:30.178Z,19.27
2022-08-10T23:28:38.556Z,19.41
2022-08-10T23:32:00.847Z,19.46
2022-08-10T23:34:45.251Z,19.49
2022-08-10T23:37:55.651Z,19.50
2022-08-10T23:40:50.691Z,19.52
2022-08-10T23:44:03.311Z,19.50
2022-08-10T23:46:53.526Z,19.50
2022-08-10T23:49:43.113Z,19.50
2022-08-10T23:52:34.553Z,19.56
2022-08-10T23:55:25.598Z,19.58
2022-08-10T23:58:32.902Z,19.60
